createdAt,value
2022-07-29T00:02:52.300Z,0.80
2022-07-29T00:07:59.195Z,0.93
2022-07-29T00:13:06.250Z,0.85
2022-07-29T00:18:13.156Z,0.83
2022-07-29T00:23:20.104Z,0.84
2022-07-29T00:28:27.115Z,0.82
2022-07-29T00:33:34.318Z,0.93
2022-07-29T00:38:41.283Z,0.94
2022-07-29T00:43:48.410Z,0.95
2022-07-29T00:48:55.470Z,0.89
2022-07-29T00:54:02.528Z,0.90
2022-07-29T00:59:09.466Z,0.95
2022-07-29T01:04:16.732Z,1.20
2022-07-29T01:09:34.455Z,0.97
2022-07-29T01:14:29.484Z,0.89
2022-07-29T01:19:36.382Z,1.03
2022-07-29T01:24:43.453Z,1.04
2022-07-29T01:29:50.361Z,0.84
2022-07-29T01:34:57.579Z,1.12
2022-07-29T01:40:04.534Z,1.06
2022-07-29T01:45:11.559Z,1.27
2022-07-29T01:50:18.508Z,1.25
2022-07-29T01:55:25.638Z,1.08
2022-07-29T02:00:32.569Z,1.09
2022-07-29T02:05:39.715Z,1.37
2022-07-29T02:10:46.798Z,1.14
2022-07-29T02:15:54.006Z,1.38
2022-07-29T02:21:00.868Z,1.47
2022-07-29T02:26:07.803Z,1.19
2022-07-29T02:31:14.913Z,1.26
2022-07-29T02:36:21.845Z,1.43
2022-07-29T02:41:30.810Z,1.31
2022-07-29T02:46:35.490Z,1.43
2022-07-29T02:51:44.733Z,1.27
2022-07-29T02:56:49.221Z,1.52
2022-07-29T03:01:56.222Z,1.40
2022-07-29T03:07:03.127Z,1.59
2022-07-29T03:12:10.170Z,0.80
2022-07-29T03:17:17.094Z,1.15
2022-07-29T03:22:24.072Z,1.58
2022-07-29T03:27:31.032Z,1.34
2022-07-29T03:32:38.148Z,1.28
2022-07-29T03:37:45.121Z,1.26
2022-07-29T03:42:52.190Z,1.20
2022-07-29T03:48:00.940Z,1.31
2022-07-29T03:53:05.814Z,1.32
2022-07-29T03:58:12.762Z,1.29
2022-07-29T04:03:19.872Z,1.24
2022-07-29T04:08:26.785Z,1.21
2022-07-29T04:13:34.778Z,1.22
2022-07-29T04:18:41.774Z,1.36
2022-07-29T04:23:53.909Z,1.29
2022-07-29T04:28:55.368Z,1.23
2022-07-29T04:34:02.478Z,1.26
2022-07-29T04:39:09.445Z,1.14
2022-07-29T04:44:16.777Z,1.39
2022-07-29T04:49:23.088Z,1.27
2022-07-29T04:54:29.999Z,1.14
2022-07-29T04:59:37.176Z,1.45
2022-07-29T05:04:44.113Z,1.68
2022-07-29T05:09:51.287Z,1.44
2022-07-29T05:14:58.247Z,1.25
2022-07-29T05:20:05.477Z,1.58
2022-07-29T05:25:12.437Z,2.18
2022-07-29T05:30:19.586Z,2.05
2022-07-29T05:35:26.531Z,1.90
2022-07-29T05:40:33.552Z,1.80
2022-07-29T05:45:49.211Z,1.68
2022-07-29T05:50:47.039Z,2.08
2022-07-29T05:55:54.033Z,1.82
2022-07-29T06:01:01.204Z,1.73
2022-07-29T06:06:08.124Z,1.97
2022-07-29T06:11:15.199Z,2.13
2022-07-29T06:16:30.270Z,1.99
2022-07-29T06:21:28.708Z,1.90
2022-07-29T06:26:39.748Z,1.63
2022-07-29T06:31:42.725Z,1.54
2022-07-29T06:36:49.660Z,1.77
2022-07-29T06:41:56.887Z,2.10
2022-07-29T06:47:03.873Z,1.70
2022-07-29T06:52:11.171Z,2.06
2022-07-29T06:57:18.165Z,1.80
2022-07-29T07:02:25.277Z,1.85
2022-07-29T07:07:32.148Z,1.64
2022-07-29T07:12:39.143Z,1.81
2022-07-29T07:17:46.051Z,1.74
2022-07-29T07:22:53.089Z,1.46
2022-07-29T07:28:00.106Z,1.65
2022-07-29T07:33:07.216Z,1.42
2022-07-29T07:38:14.151Z,1.48
2022-07-29T07:43:21.146Z,1.76
2022-07-29T07:48:28.106Z,1.49
2022-07-29T07:53:35.127Z,1.65
2022-07-29T07:58:42.055Z,1.63
2022-07-29T08:03:49.035Z,1.62
2022-07-29T08:08:56.470Z,1.50
2022-07-29T08:14:02.538Z,1.45
2022-07-29T08:19:09.536Z,1.57
2022-07-29T08:24:16.668Z,1.07
2022-07-29T08:29:23.654Z,1.09
2022-07-29T08:34:30.818Z,1.18
2022-07-29T08:39:37.781Z,1.01
2022-07-29T08:44:44.889Z,0.87
2022-07-29T08:49:51.905Z,1.00
2022-07-29T08:54:59.013Z,0.99
2022-07-29T09:00:08.115Z,0.98
2022-07-29T09:05:12.636Z,0.83
2022-07-29T09:10:19.716Z,0.84
2022-07-29T09:15:26.932Z,0.89
2022-07-29T09:20:33.910Z,0.87
2022-07-29T09:25:41.480Z,0.88
2022-07-29T09:30:48.473Z,0.67
2022-07-29T09:35:56.367Z,0.69
2022-07-29T09:41:05.425Z,0.77
2022-07-29T09:46:12.047Z,0.73
2022-07-29T09:51:18.315Z,0.79
2022-07-29T09:56:21.858Z,0.79
2022-07-29T10:01:29.049Z,0.75
2022-07-29T10:06:35.933Z,0.73
2022-07-29T10:11:48.861Z,0.67
2022-07-29T10:16:49.653Z,0.75
2022-07-29T10:21:58.210Z,0.72
2022-07-29T10:27:03.129Z,0.66
2022-07-29T10:32:10.206Z,0.64
2022-07-29T10:37:17.168Z,0.59
2022-07-29T10:42:33.931Z,0.86
2022-07-29T10:47:30.364Z,0.82
2022-07-29T10:52:38.079Z,0.80
2022-07-29T10:57:53.593Z,0.92
2022-07-29T11:02:51.139Z,0.91
2022-07-29T11:07:58.004Z,0.97
2022-07-29T11:13:04.524Z,0.89
2022-07-29T11:18:15.015Z,0.81
2022-07-29T11:23:17.602Z,0.80
2022-07-29T11:28:25.107Z,0.77
2022-07-29T11:33:54.066Z,0.72
2022-07-29T11:38:37.316Z,0.70
2022-07-29T11:43:46.134Z,0.83
2022-07-29T11:48:50.409Z,0.65
2022-07-29T11:54:01.045Z,0.55
2022-07-29T11:59:03.432Z,0.57
2022-07-29T12:04:09.966Z,0.78
2022-07-29T12:09:16.440Z,0.65
2022-07-29T12:14:23.468Z,0.57
2022-07-29T12:19:30.596Z,0.65
2022-07-29T12:24:37.325Z,0.63
2022-07-29T12:29:48.788Z,0.89
2022-07-29T12:34:50.292Z,0.65
2022-07-29T12:39:57.693Z,0.64
2022-07-29T12:45:04.678Z,0.62
2022-07-29T12:50:11.871Z,0.84
2022-07-29T12:55:18.867Z,0.68
2022-07-29T13:00:26.022Z,0.75
2022-07-29T13:05:33.100Z,0.71
2022-07-29T13:10:40.056Z,0.77
2022-07-29T13:15:46.994Z,0.60
2022-07-29T13:20:53.965Z,0.91
2022-07-29T13:26:01.128Z,0.86
2022-07-29T13:31:08.122Z,0.61
2022-07-29T13:36:18.211Z,0.70
2022-07-29T13:41:15.195Z,0.74
2022-07-29T13:46:22.429Z,0.71
2022-07-29T13:51:30.578Z,0.92
2022-07-29T13:56:37.728Z,1.03
2022-07-29T14:01:45.479Z,0.88
2022-07-29T14:06:51.524Z,0.99
2022-07-29T14:11:59.066Z,1.24
2022-07-29T14:17:05.270Z,0.95
2022-07-29T14:22:13.291Z,0.82
2022-07-29T14:27:20.433Z,0.90
2022-07-29T14:32:26.955Z,1.20
2022-07-29T14:37:39.816Z,1.00
2022-07-29T14:42:40.567Z,0.79
2022-07-29T14:47:47.642Z,0.90
2022-07-29T14:52:55.077Z,0.93
2022-07-29T14:58:09.732Z,0.80
2022-07-29T15:03:11.350Z,0.99
2022-07-29T15:08:15.420Z,0.80
2022-07-29T15:13:22.448Z,0.82
2022-07-29T15:18:29.510Z,0.95
2022-07-29T15:23:36.470Z,0.81
2022-07-29T15:28:43.500Z,0.81
2022-07-29T15:33:54.388Z,0.69
2022-07-29T15:38:56.951Z,0.78
2022-07-29T15:44:03.885Z,0.68
2022-07-29T15:49:11.115Z,0.79
2022-07-29T15:54:18.004Z,0.93
2022-07-29T15:59:24.992Z,0.83
2022-07-29T16:04:32.060Z,0.79
2022-07-29T16:09:39.098Z,0.81
2022-07-29T16:14:46.091Z,0.81
2022-07-29T16:19:53.111Z,0.79
2022-07-29T16:25:01.494Z,0.84
2022-07-29T16:30:08.602Z,0.82
2022-07-29T16:35:15.538Z,0.79
2022-07-29T16:40:22.625Z,0.86
2022-07-29T16:45:31.557Z,0.79
2022-07-29T16:50:36.314Z,0.99
2022-07-29T16:55:43.249Z,0.67
2022-07-29T17:00:50.295Z,1.26
2022-07-29T17:05:56.819Z,1.04
2022-07-29T17:11:03.929Z,1.11
2022-07-29T17:16:10.925Z,0.98
2022-07-29T17:21:17.983Z,5.16
2022-07-29T17:26:24.924Z,1.17
2022-07-29T17:31:32.075Z,0.53
2022-07-29T17:36:38.944Z,0.52
2022-07-29T17:41:46.061Z,0.68
2022-07-29T17:46:53.099Z,0.74
2022-07-29T17:52:01.066Z,0.70
2022-07-29T17:57:06.731Z,0.72
2022-07-29T18:02:13.839Z,0.56
2022-07-29T18:07:20.768Z,0.86
2022-07-29T18:12:27.954Z,0.91
2022-07-29T18:17:55.837Z,0.76
2022-07-29T18:22:41.676Z,0.80
2022-07-29T18:27:48.690Z,0.94
2022-07-29T18:33:19.669Z,1.03
2022-07-29T18:38:03.342Z,0.86
2022-07-29T18:43:08.983Z,0.90
2022-07-29T18:48:16.197Z,0.90
2022-07-29T18:53:23.194Z,1.07
2022-07-29T18:58:30.316Z,1.04
2022-07-29T19:03:37.352Z,1.07
2022-07-29T19:08:44.466Z,1.04
2022-07-29T19:13:51.478Z,1.13
2022-07-29T19:18:58.529Z,1.25
2022-07-29T19:24:06.824Z,1.10
2022-07-29T19:29:13.203Z,1.11
2022-07-29T19:34:20.255Z,1.10
2022-07-29T19:39:31.767Z,1.00
2022-07-29T19:44:34.154Z,1.55
2022-07-29T19:49:41.120Z,1.22
2022-07-29T19:54:48.142Z,1.12
2022-07-29T19:59:55.249Z,1.22
2022-07-29T20:05:01.805Z,1.44
2022-07-29T20:10:08.716Z,1.39
2022-07-29T20:15:16.340Z,1.32
2022-07-29T20:20:22.482Z,1.30
2022-07-29T20:25:29.478Z,1.35
2022-07-29T20:30:38.587Z,1.45
2022-07-29T20:35:43.045Z,1.41
2022-07-29T20:40:50.097Z,1.50
2022-07-29T20:45:57.189Z,1.44
2022-07-29T20:51:04.324Z,1.24
2022-07-29T20:56:11.330Z,1.56
2022-07-29T21:01:18.356Z,1.31
2022-07-29T21:06:25.425Z,1.36
2022-07-29T21:11:43.729Z,1.20
2022-07-29T21:16:39.002Z,1.14
2022-07-29T21:21:45.918Z,1.40
2022-07-29T21:27:18.269Z,1.38
2022-07-29T21:31:59.467Z,1.53
2022-07-29T21:37:07.012Z,1.54
2022-07-29T21:42:13.045Z,1.39
2022-07-29T21:47:19.995Z,1.32
2022-07-29T21:52:27.028Z,1.25
2022-07-29T21:57:33.970Z,1.45
2022-07-29T22:02:41.021Z,1.32
2022-07-29T22:07:55.979Z,1.44
2022-07-29T22:12:54.626Z,1.32
2022-07-29T22:18:01.612Z,1.31
2022-07-29T22:23:08.830Z,1.25
2022-07-29T22:28:15.835Z,1.49
2022-07-29T22:33:23.044Z,1.36
2022-07-29T22:38:29.948Z,1.37
2022-07-29T22:43:37.113Z,1.49
2022-07-29T22:48:44.126Z,1.39
2022-07-29T22:53:51.026Z,1.36
2022-07-29T22:58:58.261Z,1.57
2022-07-29T23:04:05.312Z,1.46
2022-07-29T23:09:12.225Z,1.52
2022-07-29T23:14:19.350Z,1.53
2022-07-29T23:19:26.248Z,1.54
2022-07-29T23:24:33.362Z,1.50
2022-07-29T23:29:40.384Z,1.30
2022-07-29T23:34:47.572Z,1.31
2022-07-29T23:39:54.583Z,1.49
2022-07-29T23:45:01.730Z,1.58
2022-07-29T23:50:08.703Z,1.23
2022-07-29T23:55:36.800Z,1.09
